Latest Weather Observations for Avalon

IDV60801

Issued at 10:32 am EDT Tuesday 17 October 2017 (issued every 30 minutes, with the page automatically refreshed every 10 minutes)

About weather observations | Map of weather stations | Latest weather observations for VIC | Other Formats
Station Details ID: 087113 Name: AVALON AIRPORT Lat: -38.03 Lon: 144.48 Height: 10.6 m
Data from the previous 72 hours. | See also: Recent months at Avalon
Date/Time
EDT
Temp
°C
App
Temp
°C
Dew
Point
°C
Rel
Hum
%
Delta-T
°C
Wind Press
QNH
hPa
Press
MSL
hPa
Rain since
9am
mm
Dir  Spd
km/h
Gust
km/h
Spd
kts
Gust
kts
17/10:30am 26.4 21.2 10.1 36 9.0 NNE 28 35 15 19 1022.3 1022.3 0.0
17/10:00am 24.7 19.9 10.2 40 8.0 NNE 26 33 14 18 1022.4 1022.4 0.0
17/09:30am 23.4 19.2 11.1 46 6.9 NNE 24 33 13 18 1022.3 1022.3 0.0
17/09:00am 20.9 18.1 12.6 59 4.7 NNE 19 24 10 13 1022.3 1022.3 0.0
17/08:30am 17.6 16.3 13.7 78 2.2 NE 13 19 7 10 1022.3 1022.3 0.0
17/08:00am 12.9 12.6 12.6 98 0.2 NNW 6 11 3 6 1022.1 1022.1 0.0
17/07:30am 11.3 10.9 11.1 99 0.1 NE 4 9 2 5 1021.8 1021.8 0.0
17/07:00am 8.9 7.9 8.8 99 0.0 NNE 4 11 2 6 1021.6 1021.6 0.0
17/06:30am 7.6 5.9 7.5 99 0.0 NE 6 9 3 5 1021.4 1021.4 0.0
17/06:00am 7.5 6.9 7.4 99 0.0 CALM 0 0 0 0 1021.4 1021.4 0.0
17/05:30am 9.0 7.1 9.0 100 0.0 NE 9 13 5 7 1021.2 1021.2 0.0
17/05:00am 8.6 7.5 8.6 100 0.0 ENE 4 7 2 4 1021.2 1021.2 0.0
17/04:30am 9.4 9.3 9.4 100 0.0 CALM 0 0 0 0 1021.4 1021.4 0.0
17/04:06am 10.3 10.4 10.3 100 0.0 CALM 0 6 0 3 1021.4 1021.4 0.0
17/04:00am 10.9 10.1 10.9 100 0.0 NE 6 9 3 5 1021.4 1021.4 0.0
17/03:37am 11.7 10.5 11.7 100 0.0 NE 9 13 5 7 1021.5 1021.5 0.0
17/03:30am 10.9 9.1 10.9 100 0.0 NE 11 13 6 7 1021.4 1021.4 0.0
17/03:22am 10.5 9.0 10.5 100 0.0 NE 9 11 5 6 1021.5 1021.5 0.0
17/03:00am 10.0 8.9 10.0 100 0.0 NE 6 7 3 4 1021.5 1021.5 0.0
17/02:30am 11.1 10.3 11.1 100 0.0 NNW 6 7 3 4 1021.8 1021.8 0.0
17/02:00am 10.9 9.9 10.9 100 0.0 NNW 7 9 4 5 1022.2 1022.2 0.0
17/01:30am 11.1 10.1 11.1 100 0.0 WNW 7 9 4 5 1022.7 1022.7 0.0
17/01:00am 11.4 10.5 11.4 100 0.0 WNW 7 9 4 5 1022.9 1022.9 0.0
17/12:30am 12.3 11.3 12.3 100 0.0 WNW 9 9 5 5 1023.0 1023.0 0.0
17/12:26am 12.4 11.8 12.4 100 0.0 WNW 7 9 4 5 1023.0 1023.0 0.0
17/12:21am 12.5 12.0 12.5 100 0.0 WNW 7 9 4 5 1023.0 1023.0 0.0
17/12:00am 12.7 12.2 12.7 100 0.0 WNW 7 11 4 6 1023.2 1023.2 0.0
 
Date/Time
EDT
Temp
°C
App
Temp
°C
Dew
Point
°C
Rel
Hum
%
Delta-T
°C
Wind Press
QNH
hPa
Press
MSL
hPa
Rain since
9am
mm
Dir  Spd
km/h
Gust
km/h
Spd
kts
Gust
kts
16/11:57pm 12.8 12.0 12.8 100 0.0 WNW 9 11 5 6 1023.2 1023.2 0.0
16/11:41pm 12.7 11.8 12.7 100 0.0 WNW 9 11 5 6 1023.3 1023.3 0.0
16/11:30pm 12.7 11.1 12.7 100 0.0 W 13 13 7 7 1023.4 1023.4 0.0
16/11:26pm 12.8 11.2 12.8 100 0.0 W 13 13 7 7 1023.5 1023.5 0.0
16/11:00pm 12.9 12.1 12.9 100 0.0 W 9 13 5 7 1023.6 1023.6 0.0
16/10:30pm 12.9 12.4 12.7 99 0.1 W 7 9 4 5 1023.5 1023.5 0.0
16/10:00pm 13.8 13.2 13.6 99 0.1 SW 9 13 5 7 1023.3 1023.3 0.0
16/09:30pm 13.8 13.2 13.6 99 0.1 WSW 9 11 5 6 1023.3 1023.3 0.0
16/09:00pm 14.4 13.9 13.8 96 0.3 WSW 9 13 5 7 1023.2 1023.2 0.0
16/08:30pm 15.1 14.3 14.1 94 0.6 SW 11 15 6 8 1022.8 1022.8 0.0
16/08:00pm 15.7 15.0 14.2 91 0.8 SW 11 15 6 8 1022.5 1022.5 0.0
16/07:30pm 16.8 15.7 14.4 86 1.4 SSW 13 19 7 10 1022.2 1022.2 0.0
16/07:00pm 19.3 17.2 14.6 74 2.7 SSW 19 22 10 12 1021.9 1021.9 0.0
16/06:30pm 21.6 20.1 15.4 68 3.7 SSW 17 20 9 11 1021.7 1021.7 0.0
16/06:00pm 24.1 22.5 15.1 57 5.4 SSW 17 22 9 12 1021.5 1021.5 0.0
16/05:30pm 25.6 22.5 11.7 42 7.9 SSE 19 22 10 12 1021.4 1021.4 0.0
16/05:00pm 25.7 22.8 12.9 45 7.4 SSE 20 28 11 15 1021.5 1021.5 0.0
16/04:30pm 25.4 23.2 14.5 51 6.5 SE 19 22 10 12 1021.5 1021.5 0.0
16/04:00pm 25.5 23.8 14.6 51 6.5 SE 17 20 9 11 1021.7 1021.7 0.0
16/03:30pm 25.2 23.2 14.0 49 6.6 SE 17 20 9 11 1022.0 1022.0 0.0
16/03:00pm 23.5 22.2 13.7 54 5.7 SE 13 19 7 10 1022.5 1022.5 0.0
16/02:30pm 22.5 20.9 13.8 58 5.1 SE 15 20 8 11 1022.7 1022.7 0.0
16/02:00pm 22.6 21.8 15.0 62 4.5 SE 13 17 7 9 1023.0 1023.0 0.0
16/01:30pm 19.3 18.8 13.9 71 3.1 SE 9 15 5 8 1023.5 1023.5 0.0
16/01:00pm 18.6 17.1 14.1 75 2.6 SE 15 19 8 10 1023.9 1023.9 0.0
16/12:30pm 18.0 16.2 13.3 74 2.7 ESE 15 20 8 11 1024.2 1024.2 0.0
16/12:00pm 17.5 15.3 13.2 76 2.4 ESE 17 24 9 13 1024.5 1024.5 0.0
16/11:30am 16.7 14.3 12.7 77 2.2 SE 17 20 9 11 1025.0 1025.0 0.0
16/11:00am 17.1 15.8 12.6 75 2.5 E 11 17 6 9 1025.4 1025.4 0.0
16/10:43am 16.7 15.9 13.0 79 2.1 ESE 9 13 5 7 1025.7 1025.7 0.0
16/10:30am 15.6 15.2 12.4 81 1.8 N 6 9 3 5 1025.7 1025.7 0.0
16/10:00am 14.2 13.3 12.6 90 0.9 ENE 9 13 5 7 1025.9 1025.9 0.0
16/09:30am 12.9 11.5 12.1 95 0.4 NE 11 19 6 10 1025.9 1025.9 0.0
16/09:00am 12.5 11.0 12.0 97 0.3 NE 11 15 6 8 1025.8 1025.8 0.0
16/08:30am 12.0 10.8 11.7 98 0.2 NE 9 13 5 7 1025.8 1025.8 0.0
16/08:00am 11.6 10.3 11.3 98 0.2 NNE 9 15 5 8 1025.6 1025.6 0.0
16/07:30am 11.5 10.6 11.3 99 0.1 ENE 7 11 4 6 1025.5 1025.5 0.0
16/07:00am 11.3 10.3 11.1 99 0.1 N 7 11 4 6 1025.1 1025.1 0.0
16/06:30am 11.1 9.7 10.9 99 0.1 N 9 13 5 7 1024.8 1024.8 0.0
16/06:00am 11.2 11.5 11.0 99 0.1 CALM 0 0 0 0 1024.8 1024.8 0.0
16/05:30am 11.1 11.4 10.8 98 0.2 CALM 0 0 0 0 1024.6 1024.6 0.0
16/05:00am 11.0 11.2 10.7 98 0.2 CALM 0 0 0 0 1024.5 1024.5 0.0
16/04:30am 11.1 10.6 10.6 97 0.3 NNW 4 7 2 4 1024.5 1024.5 0.0
16/04:00am 11.1 10.6 10.6 97 0.3 N 4 11 2 6 1024.6 1024.6 0.0
16/03:30am 11.3 11.2 10.8 97 0.3 NE 2 6 1 3 1024.8 1024.8 0.0
16/03:00am 11.3 11.7 11.1 99 0.1 CALM 0 0 0 0 1025.0 1025.0 0.0
16/02:30am 11.3 11.7 11.1 99 0.1 CALM 0 0 0 0 1025.3 1025.3 0.0
16/02:00am 11.2 11.5 11.0 99 0.1 CALM 0 0 0 0 1025.5 1025.5 0.0
16/01:30am 11.1 11.5 11.1 100 0.0 CALM 0 0 0 0 1025.5 1025.5 0.0
16/01:00am 11.1 10.1 11.1 100 0.0 S 7 11 4 6 1025.7 1025.7 0.0
16/12:30am 11.0 9.6 11.0 100 0.0 SSE 9 11 5 6 1025.8 1025.8 0.0
16/12:00am 10.8 9.4 10.8 100 0.0 SSE 9 11 5 6 1025.9 1025.9 0.0
 
Date/Time
EDT
Temp
°C
App
Temp
°C
Dew
Point
°C
Rel
Hum
%
Delta-T
°C
Wind Press
QNH
hPa
Press
MSL
hPa
Rain since
9am
mm
Dir  Spd
km/h
Gust
km/h
Spd
kts
Gust
kts
15/11:42pm 9.9 7.5 9.9 100 0.0 SSE 13 13 7 7 1025.9 1025.9 0.0
15/11:30pm 9.3 7.1 9.3 100 0.0 SSE 11 13 6 7 1025.8 1025.8 0.0
15/11:00pm 9.3 7.1 9.2 99 0.0 SSE 11 11 6 6 1025.6 1025.6 0.0
15/10:55pm 9.4 7.2 9.3 99 0.0 SSE 11 13 6 7 1025.6 1025.6 0.0
15/10:30pm 9.6 7.0 9.5 99 0.0 S 13 15 7 8 1025.9 1025.9 0.0
15/10:16pm 9.4 7.6 9.3 99 0.0 SSE 9 13 5 7 1025.8 1025.8 0.0
15/10:00pm 9.9 7.8 9.8 99 0.0 S 11 13 6 7 1025.8 1025.8 0.0
15/09:30pm 10.1 8.8 10.0 99 0.1 SSE 7 9 4 5 1025.8 1025.8 0.0
15/09:00pm 10.3 8.2 9.8 97 0.2 S 11 11 6 6 1025.8 1025.8 0.0
15/08:30pm 10.6 8.4 9.5 93 0.6 SSE 11 13 6 7 1025.5 1025.5 0.0
15/08:00pm 11.2 9.0 9.3 88 0.9 SSE 11 13 6 7 1025.3 1025.3 0.0
15/07:30pm 13.0 10.3 10.2 83 1.4 S 15 19 8 10 1025.1 1025.1 0.0
15/07:00pm 14.3 11.1 9.9 75 2.3 S 17 20 9 11 1024.8 1024.8 0.0
15/06:30pm 15.4 12.3 10.2 71 2.7 S 17 20 9 11 1024.5 1024.5 0.0
15/06:00pm 15.8 12.3 10.1 69 3.0 S 19 24 10 13 1024.6 1024.6 0.0
15/05:30pm 16.6 13.0 10.5 67 3.2 SSE 20 26 11 14 1024.4 1024.4 0.0
15/05:00pm 17.1 12.7 10.5 65 3.5 S 24 28 13 15 1024.4 1024.4 0.0
15/04:30pm 17.6 13.5 10.2 62 3.9 S 22 30 12 16 1024.4 1024.4 0.0
15/04:00pm 18.3 14.2 10.2 59 4.3 S 22 32 12 17 1024.4 1024.4 0.0
15/03:30pm 18.4 14.8 10.5 60 4.2 SSE 20 30 11 16 1024.5 1024.5 0.0
15/03:00pm 18.1 14.3 9.2 56 4.6 SE 19 26 10 14 1024.6 1024.6 0.0
15/02:30pm 18.0 14.7 9.6 58 4.4 ESE 17 24 9 13 1024.8 1024.8 0.0
15/02:00pm 18.1 14.7 9.2 56 4.6 SE 17 22 9 12 1024.9 1024.9 0.0
15/01:30pm 17.6 14.9 9.0 57 4.5 SE 13 20 7 11 1024.9 1024.9 0.0
15/01:00pm 17.4 14.9 9.8 61 4.0 SE 13 20 7 11 1025.2 1025.2 0.0
15/12:30pm 16.2 13.6 9.4 64 3.5 SE 13 19 7 10 1025.4 1025.4 0.0
15/12:00pm 15.8 12.8 9.2 65 3.4 SE 15 20 8 11 1025.7 1025.7 0.0
15/11:30am 15.6 12.8 8.4 62 3.6 SE 13 20 7 11 1026.0 1026.0 0.0
15/11:00am 15.4 13.6 9.5 68 3.0 ESE 9 17 5 9 1026.2 1026.2 0.0
15/10:30am 14.9 12.5 8.8 67 3.1 ESE 11 17 6 9 1026.4 1026.4 0.0
15/10:00am 14.8 13.4 9.4 70 2.8 S 7 15 4 8 1026.4 1026.4 0.0
15/09:30am 13.0 12.8 9.1 77 2.0 CALM 0 0 0 0 1026.3 1026.3 0.0
15/09:00am 11.2 10.0 9.6 90 0.8 WNW 6 9 3 5 1026.2 1026.2 0.0
15/08:30am 9.2 7.7 9.1 99 0.0 WNW 7 9 4 5 1026.4 1026.4 0.0
15/08:00am 7.0 5.0 7.0 100 0.0 NW 7 9 4 5 1026.1 1026.1 0.0
15/07:30am 4.9 2.4 4.8 99 0.0 NW 7 9 4 5 1025.8 1025.8 0.0
15/07:00am 3.2 0.0 3.1 99 0.0 NW 9 9 5 5 1025.4 1025.4 0.0
15/06:30am 3.3 0.1 3.2 99 0.0 WNW 9 9 5 5 1024.9 1024.9 0.0
15/06:00am 3.4 0.6 3.3 99 0.0 W 7 9 4 5 1024.7 1024.7 0.0
15/05:30am 3.4 -0.1 3.3 99 0.0 NNW 11 11 6 6 1024.5 1024.5 0.0
15/05:00am 3.1 -0.5 3.0 99 0.0 NNW 11 11 6 6 1024.5 1024.5 0.0
15/04:30am 4.1 1.1 4.0 99 0.0 WNW 9 11 5 6 1024.3 1024.3 0.0
15/04:00am 3.0 -0.6 2.9 99 0.0 NW 11 13 6 7 1024.4 1024.4 0.0
15/03:30am 3.6 0.9 3.5 99 0.0 WNW 7 9 4 5 1024.3 1024.3 0.0
15/03:00am 4.5 1.9 4.4 99 0.0 WNW 7 7 4 4 1024.6 1024.6 0.0
15/02:30am 4.5 1.9 4.4 99 0.0 WNW 7 7 4 4 1025.0 1025.0 0.0
15/02:00am 4.8 2.3 4.7 99 0.0 NW 7 7 4 4 1025.0 1025.0 0.0
15/01:30am 5.0 2.1 4.6 97 0.2 NW 9 11 5 6 1025.2 1025.2 0.0
15/01:00am 5.7 2.5 5.0 95 0.3 NNW 11 13 6 7 1025.4 1025.4 0.0
15/12:30am 6.0 3.6 5.3 95 0.3 NW 7 7 4 4 1025.5 1025.5 0.0
15/12:00am 6.3 5.2 5.3 93 0.4 CALM 0 0 0 0 1025.4 1025.4 0.0
 
Date/Time
EDT
Temp
°C
App
Temp
°C
Dew
Point
°C
Rel
Hum
%
Delta-T
°C
Wind Press
QNH
hPa
Press
MSL
hPa
Rain since
9am
mm
Dir  Spd
km/h
Gust
km/h
Spd
kts
Gust
kts
14/11:30pm 6.5 5.3 4.8 89 0.7 CALM 0 0 0 0 1025.5 1025.5 0.0
14/11:00pm 7.1 6.0 5.1 87 0.9 CALM 0 0 0 0 1025.5 1025.5 0.0
14/10:30pm 7.5 6.4 5.1 85 1.1 CALM 0 0 0 0 1025.6 1025.6 0.0
14/10:00pm 8.4 6.2 6.0 85 1.1 SSE 7 9 4 5 1025.7 1025.7 0.0
14/09:30pm 8.3 5.2 5.6 83 1.2 SSE 11 11 6 6 1025.7 1025.7 0.0
14/09:00pm 8.9 5.9 5.8 81 1.4 SSE 11 11 6 6 1025.7 1025.7 0.0
14/08:30pm 8.9 5.4 5.5 79 1.5 SSE 13 13 7 7 1025.6 1025.6 0.0
14/08:00pm 10.0 7.0 6.0 76 1.8 SSE 11 13 6 7 1025.4 1025.4 0.0
14/07:30pm 11.3 8.0 6.2 71 2.4 SSE 13 15 7 8 1025.3 1025.3 0.0
14/07:00pm 13.3 9.4 6.9 65 3.1 SSE 17 20 9 11 1025.0 1025.0 0.0
14/06:30pm 14.4 10.1 7.0 61 3.6 SSE 19 22 10 12 1024.7 1024.7 0.0
14/06:00pm 15.4 11.1 7.2 58 4.0 SSE 19 24 10 13 1024.4 1024.4 0.0
14/05:30pm 15.7 11.8 7.0 56 4.3 SSE 17 22 9 12 1024.4 1024.4 0.0
14/05:00pm 15.8 11.8 6.8 55 4.4 SE 17 24 9 13 1024.1 1024.1 0.0
14/04:30pm 16.0 11.7 7.0 55 4.4 ESE 19 26 10 14 1024.0 1024.0 0.0
14/04:00pm 16.6 12.4 7.5 55 4.5 SE 19 26 10 14 1024.2 1024.2 0.0
14/03:30pm 16.5 11.7 7.4 55 4.5 ESE 22 28 12 15 1024.5 1024.5 0.0
14/03:00pm 16.0 11.1 6.7 54 4.5 SE 22 30 12 16 1024.7 1024.7 0.0
14/02:30pm 16.6 12.2 7.5 55 4.6 SE 20 26 11 14 1024.8 1024.8 0.0
14/02:00pm 17.5 14.6 8.1 54 4.8 SSE 13 20 7 11 1025.0 1025.0 0.0
14/01:30pm 17.3 13.0 7.1 51 5.1 S 19 28 10 15 1025.3 1025.3 0.0
14/01:00pm 16.2 11.9 6.9 54 4.6 SSE 19 28 10 15 1025.4 1025.4 0.0
14/12:30pm 16.2 11.9 7.2 55 4.5 SSE 19 24 10 13 1025.6 1025.6 0.0
14/12:00pm 15.6 12.7 6.6 55 4.4 SSW 11 20 6 11 1026.0 1026.0 0.0
14/11:30am 15.0 12.1 6.6 57 4.1 SSW 11 17 6 9 1026.4 1026.4 0.0
14/11:00am 15.4 12.6 6.9 57 4.1 S 11 20 6 11 1026.3 1026.3 0.0

Other Formats:

Comma delimited format used in spreadsheet applications
http://www.bom.gov.au/fwo/IDV60801/IDV60801.94854.axf

JavaScript Object Notation format (JSON) in row-major order
http://www.bom.gov.au/fwo/IDV60801/IDV60801.94854.json